Wilson Mersin — P3PA6 — position and weather

sailwx.info

Track history (hours):
 
Tides and Currents Weather Stations Pressure Air Temp Water Temp Dewpoint Dewpoint Depression Visibility Wind Speed Wind Dir Waves Ship Positions

Wilson Mersin

Last reported at 2017-Dec-07 07:00 UTC. Time now 2017-Dec-13 18:51 UTC.
Position N 37°43' W 000°22'.

Length 107 m; draft 7 m.

Type: Cargo ship. MMSI: 210072000.

Date/timePositionNaut miles runAvg speedWind from/ knotsBaromVisibWave heightAir tempDewpointWater temp
2017-Dec-07 07:00N 37°43' W 000°22'612.8
2017-Dec-07 06:30N 37°38' W 000°27'612.6
2017-Dec-07 06:00N 37°33' W 000°32'1212.3
2017-Dec-07 05:00N 37°24' W 000°43'  
2017-Dec-02 16:36N 49°49' W 003°22'1711.5
2017-Dec-02 15:09N 49°57' W 002°60'212.3
2017-Dec-02 14:59N 49°58' W 002°57'10113.5
2017-Dec-02 07:30N 50°26' W 000°25'510.1
2017-Dec-02 07:00N 50°27' W 000°17'510.4
2017-Dec-02 06:30N 50°29' W 000°09'510.8
2017-Dec-02 06:00N 50°30' W 000°01'611.2
2017-Dec-02 05:30N 50°32' E 000°07'611.9
2017-Dec-02 05:00N 50°33' E 000°16'612.6
2017-Dec-02 04:31N 50°35' E 000°26'713.3
2017-Dec-02 04:00N 50°37' E 000°36'713.5
2017-Dec-02 03:30N 50°41' E 000°44'713.9
2017-Dec-02 03:00N 50°45' E 000°53'713.8
2017-Dec-02 02:29N 50°50' E 001°01'713.5
2017-Dec-02 01:58N 50°55' E 001°10'612.9
2017-Dec-02 01:29N 50°59' E 001°17'612.2
2017-Dec-02 01:00N 51°02' E 001°24'611.3
2017-Dec-02 00:30N 51°06' E 001°31'510.3
2017-Dec-02 00:00N 51°09' E 001°37'510.0
2017-Dec-01 23:30N 51°13' E 001°44'510.1
2017-Dec-01 23:00N 51°17' E 001°48'510.6
2017-Dec-01 22:30N 51°21' E 001°52'611.2
2017-Dec-01 22:00N 51°26' E 001°57'611.8
2017-Dec-01 21:29N 51°31' E 002°04'612.4
2017-Dec-01 21:00N 51°35' E 002°10'39512.0
2017-Nov-30 12:06N 57°08' E 008°17'311.4
2017-Nov-30 11:51N 57°09' E 008°21'411.4
2017-Nov-30 11:30N 57°11' E 008°28'611.7
2017-Nov-30 10:59N 57°14' E 008°37'611.9
2017-Nov-30 10:30N 57°17' E 008°46'611.9
2017-Nov-30 10:00N 57°20' E 008°56'612.0
2017-Nov-30 09:29N 57°23' E 009°05'5911.8
2017-Nov-30 04:31N 57°48' E 010°44'012.0
2017-Nov-30 04:30N 57°48' E 010°44'612.4
2017-Nov-30 04:00N 57°44' E 010°53'612.4
2017-Nov-30 03:30N 57°40' E 011°01'612.3
2017-Nov-30 03:00N 57°36' E 011°10'612.3
2017-Nov-30 02:30N 57°32' E 011°19'612.1
2017-Nov-30 02:00N 57°27' E 011°26'612.0
2017-Nov-30 01:30N 57°22' E 011°30'612.3
2017-Nov-30 01:00N 57°16' E 011°34'612.2
2017-Nov-30 00:30N 57°10' E 011°38'6212.4
2017-Nov-29 19:31N 56°13' E 012°24'013.5
2017-Nov-29 19:29N 56°13' E 012°24'714.0
2017-Nov-29 19:01N 56°08' E 012°31'714.0
2017-Nov-29 18:31N 56°03' E 012°40'612.9
2017-Nov-29 18:01N 55°57' E 012°43'712.9
2017-Nov-29 17:30N 55°50' E 012°43'713.4
2017-Nov-29 17:01N 55°44' E 012°41'612.3
2017-Nov-29 16:30N 55°37' E 012°42'5 9.0
2017-Nov-29 16:00N 55°33' E 012°43'611.3
2017-Nov-29 15:30N 55°27' E 012°42'612.4
2017-Nov-29 15:00N 55°21' E 012°41'5 9.4
2017-Nov-29 14:30N 55°17' E 012°46'611.4
2017-Nov-29 14:00N 55°15' E 012°55'611.8
2017-Nov-29 13:31N 55°15' E 013°06'3012.1
2017-Nov-29 11:03N 55°14' E 013°58'312.3
2017-Nov-29 10:46N 55°14' E 014°04'811.4
2017-Nov-29 10:03N 55°15' E 014°18'612.2
2017-Nov-29 09:34N 55°20' E 014°25'412.5
2017-Nov-29 09:17N 55°23' E 014°29'512.7
2017-Nov-29 08:52N 55°27' E 014°35'512.2
2017-Nov-29 08:26N 55°29' E 014°43'612.1
2017-Nov-29 07:54N 55°32' E 014°53'812.2
2017-Nov-29 07:15N 55°36' E 015°05'312.2
2017-Nov-29 07:00N 55°38' E 015°10'612.1
2017-Nov-29 06:30N 55°41' E 015°19'611.9
2017-Nov-29 06:01N 55°44' E 015°28'611.8
2017-Nov-29 05:30N 55°47' E 015°37'611.4
2017-Nov-29 05:00N 55°49' E 015°46'510.9
2017-Nov-29 04:30N 55°52' E 015°54'510.6
2017-Nov-29 04:00N 55°55' E 016°02'510.6
2017-Nov-29 03:30N 55°57' E 016°11'510.4
2017-Nov-29 03:01N 55°60' E 016°19'5 9.8
2017-Nov-29 02:30N 56°02' E 016°26'5 9.9
2017-Nov-29 02:00N 56°05' E 016°34'5 9.9
2017-Nov-29 01:30N 56°07' E 016°42'28910.1
2017-Nov-27 20:55N 59°35' E 023°01'610.8
2017-Nov-27 20:24N 59°36' E 023°11'410.6
2017-Nov-27 19:59N 59°37' E 023°20'510.4
2017-Nov-27 19:30N 59°39' E 023°29'510.3
2017-Nov-27 19:01N 59°40' E 023°39'510.4
2017-Nov-27 18:30N 59°41' E 023°49'510.3
2017-Nov-27 17:59N 59°43' E 023°59'1011.0
2017-Nov-27 17:06N 59°45' E 024°18'110.3
2017-Nov-27 17:00N 59°46' E 024°20'510.9
2017-Nov-27 16:30N 59°47' E 024°30'611.5
2017-Nov-27 16:00N 59°48' E 024°41'611.7
2017-Nov-27 15:30N 59°50' E 024°53'611.4
2017-Nov-27 15:00N 59°52' E 025°04'611.3
2017-Nov-27 14:30N 59°52' E 025°15'611.3
2017-Nov-27 13:59N 59°53' E 025°26'2311.5
2017-Nov-27 11:57N 59°58' E 026°12'511.9
2017-Nov-27 11:30N 59°60' E 026°22'611.8
2017-Nov-27 11:00N 60°01' E 026°33'612.0
2017-Nov-27 10:30N 60°01' E 026°45'612.3
2017-Nov-27 10:00N 59°60' E 026°58'611.5
2017-Nov-27 09:30N 60°01' E 027°09'611.8
2017-Nov-27 09:00N 60°04' E 027°19'611.9
2017-Nov-27 08:30N 60°07' E 027°29'611.8
2017-Nov-27 08:00N 60°10' E 027°39'611.4
2017-Nov-27 07:30N 60°12' E 027°51'612.1
2017-Nov-27 07:00N 60°10' E 028°02'  
Track history (hours):
 
Tides and Currents Weather Stations Pressure Air Temp Water Temp Dewpoint Dewpoint Depression Visibility Wind Speed Wind Dir Waves Ship Positions

Wilson Mersin

Last reported at 2017-Dec-07 07:00 UTC. Time now 2017-Dec-13 18:51 UTC.
Position N 37°43' W 000°22'.

Length 107 m; draft 7 m.

Type: Cargo ship. MMSI: 210072000.

Date/timePositionNaut miles runAvg speedWind from/ knotsBaromVisibWave heightAir tempDewpointWater temp
2017-Dec-07 07:00N 37°43' W 000°22'612.8
2017-Dec-07 06:30N 37°38' W 000°27'612.6
2017-Dec-07 06:00N 37°33' W 000°32'1212.3
2017-Dec-07 05:00N 37°24' W 000°43'  
2017-Dec-02 16:36N 49°49' W 003°22'1711.5
2017-Dec-02 15:09N 49°57' W 002°60'212.3
2017-Dec-02 14:59N 49°58' W 002°57'10113.5
2017-Dec-02 07:30N 50°26' W 000°25'510.1
2017-Dec-02 07:00N 50°27' W 000°17'510.4
2017-Dec-02 06:30N 50°29' W 000°09'510.8
2017-Dec-02 06:00N 50°30' W 000°01'611.2
2017-Dec-02 05:30N 50°32' E 000°07'611.9
2017-Dec-02 05:00N 50°33' E 000°16'612.6
2017-Dec-02 04:31N 50°35' E 000°26'713.3
2017-Dec-02 04:00N 50°37' E 000°36'713.5
2017-Dec-02 03:30N 50°41' E 000°44'713.9
2017-Dec-02 03:00N 50°45' E 000°53'713.8
2017-Dec-02 02:29N 50°50' E 001°01'713.5
2017-Dec-02 01:58N 50°55' E 001°10'612.9
2017-Dec-02 01:29N 50°59' E 001°17'612.2
2017-Dec-02 01:00N 51°02' E 001°24'611.3
2017-Dec-02 00:30N 51°06' E 001°31'510.3
2017-Dec-02 00:00N 51°09' E 001°37'510.0
2017-Dec-01 23:30N 51°13' E 001°44'510.1
2017-Dec-01 23:00N 51°17' E 001°48'510.6
2017-Dec-01 22:30N 51°21' E 001°52'611.2
2017-Dec-01 22:00N 51°26' E 001°57'611.8
2017-Dec-01 21:29N 51°31' E 002°04'612.4
2017-Dec-01 21:00N 51°35' E 002°10'39512.0
2017-Nov-30 12:06N 57°08' E 008°17'311.4
2017-Nov-30 11:51N 57°09' E 008°21'411.4
2017-Nov-30 11:30N 57°11' E 008°28'611.7
2017-Nov-30 10:59N 57°14' E 008°37'611.9
2017-Nov-30 10:30N 57°17' E 008°46'611.9
2017-Nov-30 10:00N 57°20' E 008°56'612.0
2017-Nov-30 09:29N 57°23' E 009°05'5911.8
2017-Nov-30 04:31N 57°48' E 010°44'012.0
2017-Nov-30 04:30N 57°48' E 010°44'612.4
2017-Nov-30 04:00N 57°44' E 010°53'612.4
2017-Nov-30 03:30N 57°40' E 011°01'612.3
2017-Nov-30 03:00N 57°36' E 011°10'612.3
2017-Nov-30 02:30N 57°32' E 011°19'612.1
2017-Nov-30 02:00N 57°27' E 011°26'612.0
2017-Nov-30 01:30N 57°22' E 011°30'612.3
2017-Nov-30 01:00N 57°16' E 011°34'612.2
2017-Nov-30 00:30N 57°10' E 011°38'6212.4
2017-Nov-29 19:31N 56°13' E 012°24'013.5
2017-Nov-29 19:29N 56°13' E 012°24'714.0
2017-Nov-29 19:01N 56°08' E 012°31'714.0
2017-Nov-29 18:31N 56°03' E 012°40'612.9
2017-Nov-29 18:01N 55°57' E 012°43'712.9
2017-Nov-29 17:30N 55°50' E 012°43'713.4
2017-Nov-29 17:01N 55°44' E 012°41'612.3
2017-Nov-29 16:30N 55°37' E 012°42'5 9.0
2017-Nov-29 16:00N 55°33' E 012°43'611.3
2017-Nov-29 15:30N 55°27' E 012°42'612.4
2017-Nov-29 15:00N 55°21' E 012°41'5 9.4
2017-Nov-29 14:30N 55°17' E 012°46'611.4
2017-Nov-29 14:00N 55°15' E 012°55'611.8
2017-Nov-29 13:31N 55°15' E 013°06'3012.1
2017-Nov-29 11:03N 55°14' E 013°58'312.3
2017-Nov-29 10:46N 55°14' E 014°04'811.4
2017-Nov-29 10:03N 55°15' E 014°18'612.2
2017-Nov-29 09:34N 55°20' E 014°25'412.5
2017-Nov-29 09:17N 55°23' E 014°29'512.7
2017-Nov-29 08:52N 55°27' E 014°35'512.2
2017-Nov-29 08:26N 55°29' E 014°43'612.1
2017-Nov-29 07:54N 55°32' E 014°53'812.2
2017-Nov-29 07:15N 55°36' E 015°05'312.2
2017-Nov-29 07:00N 55°38' E 015°10'612.1
2017-Nov-29 06:30N 55°41' E 015°19'611.9
2017-Nov-29 06:01N 55°44' E 015°28'611.8
2017-Nov-29 05:30N 55°47' E 015°37'611.4
2017-Nov-29 05:00N 55°49' E 015°46'510.9
2017-Nov-29 04:30N 55°52' E 015°54'510.6
2017-Nov-29 04:00N 55°55' E 016°02'510.6
2017-Nov-29 03:30N 55°57' E 016°11'510.4
2017-Nov-29 03:01N 55°60' E 016°19'5 9.8
2017-Nov-29 02:30N 56°02' E 016°26'5 9.9
2017-Nov-29 02:00N 56°05' E 016°34'5 9.9
2017-Nov-29 01:30N 56°07' E 016°42'28910.1
2017-Nov-27 20:55N 59°35' E 023°01'610.8
2017-Nov-27 20:24N 59°36' E 023°11'410.6
2017-Nov-27 19:59N 59°37' E 023°20'510.4
2017-Nov-27 19:30N 59°39' E 023°29'510.3
2017-Nov-27 19:01N 59°40' E 023°39'510.4
2017-Nov-27 18:30N 59°41' E 023°49'510.3
2017-Nov-27 17:59N 59°43' E 023°59'1011.0
2017-Nov-27 17:06N 59°45' E 024°18'110.3
2017-Nov-27 17:00N 59°46' E 024°20'510.9
2017-Nov-27 16:30N 59°47' E 024°30'611.5
2017-Nov-27 16:00N 59°48' E 024°41'611.7
2017-Nov-27 15:30N 59°50' E 024°53'611.4
2017-Nov-27 15:00N 59°52' E 025°04'611.3
2017-Nov-27 14:30N 59°52' E 025°15'611.3
2017-Nov-27 13:59N 59°53' E 025°26'2311.5
2017-Nov-27 11:57N 59°58' E 026°12'511.9
2017-Nov-27 11:30N 59°60' E 026°22'611.8
2017-Nov-27 11:00N 60°01' E 026°33'612.0
2017-Nov-27 10:30N 60°01' E 026°45'612.3
2017-Nov-27 10:00N 59°60' E 026°58'611.5
2017-Nov-27 09:30N 60°01' E 027°09'611.8
2017-Nov-27 09:00N 60°04' E 027°19'611.9
2017-Nov-27 08:30N 60°07' E 027°29'611.8
2017-Nov-27 08:00N 60°10' E 027°39'611.4
2017-Nov-27 07:30N 60°12' E 027°51'612.1
2017-Nov-27 07:00N 60°10' E 028°02'  

Dump ship's entire track history